createdAt,value
2023-03-12T00:03:36.106Z,97795.75
2023-03-12T00:08:38.324Z,97803.44
2023-03-12T00:13:40.775Z,97799.19
2023-03-12T00:18:43.740Z,97804.81
2023-03-12T00:23:48.012Z,97803.22
2023-03-12T00:28:50.223Z,97810.84
2023-03-12T00:33:52.151Z,97822.19
2023-03-12T00:38:55.646Z,97813.91
2023-03-12T00:43:57.849Z,97811.84
2023-03-12T00:48:59.822Z,97818.34
2023-03-12T00:54:01.751Z,97818.13
2023-03-12T00:59:04.150Z,97811.03
2023-03-12T01:04:06.131Z,97818.13
2023-03-12T01:09:09.278Z,97806.47
2023-03-12T01:14:11.237Z,97813.97
2023-03-12T01:19:13.083Z,97814.56
2023-03-12T01:24:15.015Z,97814.56
2023-03-12T01:29:16.965Z,97828.78
2023-03-12T01:34:18.934Z,97819.88
2023-03-12T01:39:20.809Z,97827.34
2023-03-12T01:44:22.694Z,97831.69
2023-03-12T01:49:30.107Z,97827.94
2023-03-12T01:54:52.411Z,97827.50
2023-03-12T01:59:59.120Z,97825.84
2023-03-12T02:05:13.601Z,97830.09
2023-03-12T02:10:16.886Z,97824.94
2023-03-12T02:15:19.496Z,97829.78
2023-03-12T02:20:36.930Z,97824.94
2023-03-12T02:25:42.258Z,97826.03
2023-03-12T02:30:50.130Z,97823.38
2023-03-12T02:35:53.187Z,97820.19
2023-03-12T02:40:56.593Z,97833.03
2023-03-12T02:45:58.832Z,97833.38
2023-03-12T02:51:00.871Z,97844.81
2023-03-12T02:56:02.897Z,97841.16
2023-03-12T03:01:05.235Z,97839.50
2023-03-12T03:06:07.509Z,97838.13
2023-03-12T03:11:10.129Z,97845.81
2023-03-12T03:16:13.607Z,97846.81
2023-03-12T03:21:16.843Z,97844.47
2023-03-12T03:26:22.541Z,97866.53
2023-03-12T03:31:24.386Z,97863.97
2023-03-12T03:36:26.714Z,97878.38
2023-03-12T03:41:35.796Z,97883.25
2023-03-12T03:46:38.100Z,97889.25
2023-03-12T03:51:43.446Z,97890.31
2023-03-12T03:56:48.704Z,97900.47
2023-03-12T04:01:50.962Z,97901.56
2023-03-12T04:06:52.919Z,97904.69
2023-03-12T04:11:54.883Z,97898.00
2023-03-12T04:16:57.067Z,97899.81
2023-03-12T04:21:59.530Z,97894.44
2023-03-12T04:27:01.623Z,97894.13
2023-03-12T04:32:03.698Z,97895.91
2023-03-12T04:37:05.784Z,97896.84
2023-03-12T04:42:08.557Z,97899.16
2023-03-12T04:47:10.821Z,97890.28
2023-03-12T04:52:12.830Z,97905.22
2023-03-12T04:57:15.339Z,97900.38
2023-03-12T05:02:17.301Z,97910.25
2023-03-12T05:07:19.984Z,97916.28
2023-03-12T05:12:21.926Z,97918.94
2023-03-12T05:17:23.934Z,97914.19
2023-03-12T05:22:25.886Z,97921.69
2023-03-12T05:27:30.901Z,97923.78
2023-03-12T05:32:34.338Z,97913.31
2023-03-12T05:37:36.432Z,97926.88
2023-03-12T05:42:39.588Z,97926.88
2023-03-12T05:47:43.566Z,97924.72
2023-03-12T05:52:45.651Z,97930.44
2023-03-12T05:57:47.776Z,97929.88
2023-03-12T06:02:49.661Z,97937.00
2023-03-12T06:07:51.890Z,97924.97
2023-03-12T06:12:54.301Z,97928.34
2023-03-12T06:17:56.402Z,97933.28
2023-03-12T06:22:58.490Z,97924.63
2023-03-12T06:28:00.921Z,97920.69
2023-03-12T06:33:04.802Z,97918.94
2023-03-12T06:38:06.728Z,97923.50
2023-03-12T06:43:12.318Z,97925.50
2023-03-12T06:48:14.256Z,97929.44
2023-03-12T06:53:16.294Z,97922.50
2023-03-12T06:58:19.160Z,97921.44
2023-03-12T07:03:21.735Z,97920.50
2023-03-12T07:08:24.793Z,97925.22
2023-03-12T07:13:26.630Z,97917.91
2023-03-12T07:18:28.481Z,97912.44
2023-03-12T07:23:30.334Z,97915.06
2023-03-12T07:28:32.233Z,97905.19
2023-03-12T07:33:34.343Z,97918.94
2023-03-12T07:38:37.282Z,97922.94
2023-03-12T07:43:39.125Z,97920.34
2023-03-12T07:48:44.125Z,97923.22
2023-03-12T07:53:46.136Z,97929.88
2023-03-12T07:58:48.280Z,97927.34
2023-03-12T08:03:50.240Z,97929.28
2023-03-12T08:08:52.414Z,97938.72
2023-03-12T08:13:54.195Z,97933.38
2023-03-12T08:18:56.086Z,97931.94
2023-03-12T08:23:57.901Z,97937.91
2023-03-12T08:29:03.199Z,97935.50
2023-03-12T08:34:05.168Z,97949.09
2023-03-12T08:39:07.069Z,97942.44
2023-03-12T08:44:09.482Z,97945.56
2023-03-12T08:49:11.432Z,97947.00
2023-03-12T08:54:13.406Z,97936.09
2023-03-12T08:59:15.242Z,97943.31
2023-03-12T09:04:17.665Z,97938.91
2023-03-12T09:09:19.817Z,97939.09
2023-03-12T09:15:01.061Z,97926.78
2023-03-12T09:19:43.561Z,97930.03
2023-03-12T09:24:45.476Z,97930.16
2023-03-12T09:29:59.423Z,97930.38
2023-03-12T09:35:02.442Z,97921.13
2023-03-12T09:40:08.264Z,97912.81
2023-03-12T09:45:20.561Z,97908.25
2023-03-12T09:50:34.601Z,97892.28
2023-03-12T09:55:39.966Z,97907.69
2023-03-12T10:00:41.804Z,97906.38
2023-03-12T10:05:52.763Z,97900.16
2023-03-12T10:11:25.878Z,97884.91
2023-03-12T10:16:47.881Z,97878.31
2023-03-12T10:22:03.518Z,97884.22
2023-03-12T10:27:14.647Z,97880.78
2023-03-12T10:32:37.797Z,97868.31
2023-03-12T10:37:44.905Z,97852.84
2023-03-12T10:42:46.903Z,97856.41
2023-03-12T10:48:00.715Z,97848.13
2023-03-12T10:53:30.045Z,97851.03
2023-03-12T10:58:39.286Z,97840.00
2023-03-12T11:03:46.343Z,97846.75
2023-03-12T11:09:16.748Z,97839.13
2023-03-12T11:14:20.891Z,97837.47
2023-03-12T11:19:34.405Z,97839.22
2023-03-12T11:24:36.243Z,97832.44
2023-03-12T11:29:43.538Z,97819.63
2023-03-12T11:34:49.852Z,97811.66
2023-03-12T11:40:13.140Z,97808.22
2023-03-12T11:45:33.864Z,97809.78
2023-03-12T11:50:35.679Z,97798.72
2023-03-12T11:55:37.437Z,97793.13
2023-03-12T12:00:54.107Z,97786.44
2023-03-12T12:06:14.749Z,97761.59
2023-03-12T12:11:55.474Z,97741.38
2023-03-12T12:17:21.556Z,97730.00
2023-03-12T12:22:49.971Z,97734.03
2023-03-12T12:28:29.405Z,97724.84
2023-03-12T12:34:22.206Z,97720.19
2023-03-12T12:39:35.351Z,97698.09
2023-03-12T12:45:04.348Z,97693.47
2023-03-12T12:50:12.382Z,97689.75
2023-03-12T12:55:23.185Z,97683.25
2023-03-12T13:00:49.106Z,97690.88
2023-03-12T13:05:58.517Z,97687.69
2023-03-12T13:11:17.183Z,97683.34
2023-03-12T13:16:30.953Z,97682.00
2023-03-12T13:21:40.927Z,97673.38
2023-03-12T13:27:04.903Z,97663.91
2023-03-12T13:32:30.324Z,97667.22
2023-03-12T13:38:02.562Z,97670.13
2023-03-12T13:43:35.971Z,97665.50
2023-03-12T13:48:45.788Z,97656.06
2023-03-12T13:53:53.223Z,97667.78
2023-03-12T13:59:06.737Z,97682.19
2023-03-12T14:04:18.992Z,97676.31
2023-03-12T14:09:40.600Z,97682.47
2023-03-12T14:15:20.673Z,97690.78
2023-03-12T14:20:23.357Z,97698.09
2023-03-12T14:25:44.907Z,97692.38
2023-03-12T14:31:05.513Z,97691.22
2023-03-12T14:36:17.239Z,97670.75
2023-03-12T14:41:31.420Z,97679.16
2023-03-12T14:46:33.731Z,97674.59
2023-03-12T14:51:37.101Z,97665.53
2023-03-12T14:56:44.576Z,97644.09
2023-03-12T15:01:48.114Z,97645.84
2023-03-12T15:06:54.658Z,97634.00
2023-03-12T15:12:02.726Z,97620.88
2023-03-12T15:17:06.618Z,97611.19
2023-03-12T15:22:17.270Z,97600.03
2023-03-12T15:27:25.580Z,97598.97
2023-03-12T15:32:30.782Z,97595.03
2023-03-12T15:37:41.419Z,97573.13
2023-03-12T15:42:46.783Z,97561.25
2023-03-12T15:47:51.211Z,97553.13
2023-03-12T15:53:06.300Z,97544.84
2023-03-12T15:58:31.938Z,97559.19
2023-03-12T16:03:34.354Z,97560.53
2023-03-12T16:08:56.661Z,97547.66
2023-03-12T16:14:07.130Z,97537.22
2023-03-12T16:19:16.696Z,97541.03
2023-03-12T16:24:19.131Z,97538.25
2023-03-12T16:29:22.331Z,97534.31
2023-03-12T16:34:24.721Z,97538.38
2023-03-12T16:39:30.387Z,97541.28
2023-03-12T16:44:35.379Z,97540.59
2023-03-12T16:49:37.309Z,97536.78
2023-03-12T16:54:39.259Z,97546.88
2023-03-12T16:59:41.854Z,97543.06
2023-03-12T17:04:44.489Z,97532.97
2023-03-12T17:09:46.769Z,97535.66
2023-03-12T17:14:49.024Z,97543.28
2023-03-12T17:19:52.163Z,97534.75
2023-03-12T17:24:55.638Z,97553.81
2023-03-12T17:29:57.807Z,97546.88
2023-03-12T17:35:03.255Z,97548.44
2023-03-12T17:40:10.010Z,97562.78
2023-03-12T17:45:12.098Z,97556.53
2023-03-12T17:50:14.857Z,97553.50
2023-03-12T17:55:16.950Z,97553.38
2023-03-12T18:00:21.696Z,97565.03
2023-03-12T18:05:23.673Z,97582.28
2023-03-12T18:10:25.535Z,97547.09
2023-03-12T18:15:27.604Z,97550.44
2023-03-12T18:20:38.651Z,97559.59
2023-03-12T18:25:41.274Z,97566.66
2023-03-12T18:30:47.200Z,97576.50
2023-03-12T18:35:49.096Z,97578.50
2023-03-12T18:40:51.429Z,97589.16
2023-03-12T18:45:53.288Z,97573.88
2023-03-12T18:50:55.139Z,97579.38
2023-03-12T18:55:58.551Z,97578.81
2023-03-12T19:01:01.892Z,97572.41
2023-03-12T19:06:06.523Z,97583.72
2023-03-12T19:11:11.091Z,97580.31
2023-03-12T19:16:16.220Z,97587.91
2023-03-12T19:21:18.772Z,97591.53
2023-03-12T19:26:20.635Z,97592.88
2023-03-12T19:31:22.752Z,97585.94
2023-03-12T19:36:24.717Z,97591.16
2023-03-12T19:41:26.653Z,97580.72
2023-03-12T19:46:28.696Z,97590.41
2023-03-12T19:51:30.503Z,97576.22
2023-03-12T19:56:32.301Z,97587.78
2023-03-12T20:01:34.194Z,97590.13
2023-03-12T20:06:36.004Z,97588.56
2023-03-12T20:11:38.000Z,97600.91
2023-03-12T20:16:39.943Z,97607.19
2023-03-12T20:21:44.093Z,97601.88
2023-03-12T20:26:46.650Z,97610.06
2023-03-12T20:31:48.652Z,97617.91
2023-03-12T20:36:50.660Z,97612.25
2023-03-12T20:41:52.531Z,97592.25
2023-03-12T20:46:54.390Z,97601.19
2023-03-12T20:51:56.228Z,97607.06
2023-03-12T20:56:58.857Z,97614.78
2023-03-12T21:02:00.828Z,97614.84
2023-03-12T21:07:02.687Z,97604.63
2023-03-12T21:12:04.930Z,97604.63
2023-03-12T21:17:08.460Z,97614.41
2023-03-12T21:22:10.352Z,97606.38
2023-03-12T21:27:13.125Z,97611.56
2023-03-12T21:32:15.510Z,97601.41
2023-03-12T21:37:17.691Z,97596.28
2023-03-12T21:42:24.461Z,97599.00
2023-03-12T21:47:26.479Z,97599.44
2023-03-12T21:52:28.966Z,97585.56
2023-03-12T21:57:30.798Z,97579.13
2023-03-12T22:02:32.679Z,97575.28
2023-03-12T22:07:34.495Z,97583.38
2023-03-12T22:12:36.295Z,97573.72
2023-03-12T22:17:38.251Z,97560.22
2023-03-12T22:22:40.105Z,97573.31
2023-03-12T22:27:42.353Z,97558.19
2023-03-12T22:32:44.208Z,97557.81
2023-03-12T22:37:46.151Z,97563.50
2023-03-12T22:42:52.715Z,97549.88
2023-03-12T22:47:54.622Z,97557.25
2023-03-12T22:52:56.681Z,97551.91
2023-03-12T22:57:58.610Z,97558.81
2023-03-12T23:03:00.556Z,97551.56
2023-03-12T23:08:02.645Z,97540.31
2023-03-12T23:13:04.606Z,97548.28
2023-03-12T23:18:06.581Z,97553.50
2023-03-12T23:23:08.722Z,97545.88
2023-03-12T23:28:10.670Z,97540.84
2023-03-12T23:33:12.636Z,97541.47
2023-03-12T23:38:14.624Z,97542.03
2023-03-12T23:43:16.864Z,97532.16
2023-03-12T23:48:18.745Z,97529.97
2023-03-12T23:53:21.279Z,97523.66
2023-03-12T23:58:24.412Z,97526.94
